Pagrindinis puslapis
METAR-TAF:

METAR-TAF

Oro uostai :

Tarptautinis Ženevos oro uostas

Ženeva, Šveicarija

platuma: 46-15N, ilguma: 006-08E, Aukštis: 420 m

Dabartinis oras

Ataskaita buvo paskelbta 31 minutes, ne 22:50 UTC
Vėjas 2 kt nuo kintamojo kryptimis
Temperatūra 9°C
Drėgmė 66%
Slėgis 1027 hPa
Matomumas 10 km arba daugiau
nėra debesų žemiau 1500 m ir nėra kamuolinių lietaus debesų

METAR: LSGG 072250Z AUTO VRB02KT CAVOK 09/03 Q1027 NOSIG

Laikas: 01:21 (23:21 UTC)

Prognozė

Ataskaita buvo paskelbta 2 valandos ir 56 minutes, ne 20:25 UTC
Prognozė galioja nuo 07 metu 21 UTC su 09 metu 03 UTC
Vėjas 3 kt nuo kintamojo kryptimis
Matomumas 10 km arba daugiau
nėra debesų žemiau 1500 m ir nėra kamuolinių lietaus debesų

TAF: LSGG 072025Z 0721/0903 VRB03KT CAVOK TX22/0815Z TN05/0805Z

Orai ataskaitas ir orų prognozės (METAR, TAF).

turimą stotys yra geltonos ir raudonos taškus žemėlapyje.

Perkelti pele per norėdami pamatyti stoties vardą.

Tada spustelėkite, norėdami matyti oro stebėjimo ir prognozės.

Norėdami pakeisti žemėlapį: spustelėkite ant žalios mygtukų su juodo kryžiaus žemyn,; žalią mygtuką su brūkšneliu, jei norite nutolinti; arba žalių rodyklių gretimoms žemėlapius.


METAR-TAF: